sensor_id;sensor_type;location;lat;lon;timestamp;temperature;humidity
22716;DHT22;11525;51.152;4.456;2023-03-23T00:01:12;13.90;99.90
22716;DHT22;11525;51.152;4.456;2023-03-23T00:03:45;13.90;99.90
22716;DHT22;11525;51.152;4.456;2023-03-23T00:06:12;14.10;99.90
22716;DHT22;11525;51.152;4.456;2023-03-23T00:08:44;14.00;99.90
22716;DHT22;11525;51.152;4.456;2023-03-23T00:13:41;14.10;99.90
22716;DHT22;11525;51.152;4.456;2023-03-23T00:16:08;14.10;99.90
22716;DHT22;11525;51.152;4.456;2023-03-23T00:18:46;14.10;99.90
22716;DHT22;11525;51.152;4.456;2023-03-23T00:21:12;14.00;99.90
22716;DHT22;11525;51.152;4.456;2023-03-23T00:23:38;14.00;99.90
22716;DHT22;11525;51.152;4.456;2023-03-23T00:26:05;14.00;99.90
22716;DHT22;11525;51.152;4.456;2023-03-23T00:28:30;14.10;99.90
22716;DHT22;11525;51.152;4.456;2023-03-23T00:31:05;14.20;99.90
22716;DHT22;11525;51.152;4.456;2023-03-23T00:33:36;14.20;99.90
22716;DHT22;11525;51.152;4.456;2023-03-23T00:36:07;14.20;99.90
22716;DHT22;11525;51.152;4.456;2023-03-23T00:38:34;14.20;99.90
22716;DHT22;11525;51.152;4.456;2023-03-23T00:41:01;14.30;99.90
22716;DHT22;11525;51.152;4.456;2023-03-23T00:43:30;14.10;99.90
22716;DHT22;11525;51.152;4.456;2023-03-23T00:45:57;14.20;99.90
22716;DHT22;11525;51.152;4.456;2023-03-23T00:48:27;14.10;99.90
22716;DHT22;11525;51.152;4.456;2023-03-23T00:50:55;14.20;99.90
22716;DHT22;11525;51.152;4.456;2023-03-23T00:53:21;14.10;99.90
22716;DHT22;11525;51.152;4.456;2023-03-23T00:55:48;14.30;99.90
22716;DHT22;11525;51.152;4.456;2023-03-23T00:58:15;14.20;99.90
22716;DHT22;11525;51.152;4.456;2023-03-23T01:00:42;14.20;99.90
22716;DHT22;11525;51.152;4.456;2023-03-23T01:03:08;14.20;99.90
22716;DHT22;11525;51.152;4.456;2023-03-23T01:05:38;14.30;99.90
22716;DHT22;11525;51.152;4.456;2023-03-23T01:08:05;14.10;99.90
22716;DHT22;11525;51.152;4.456;2023-03-23T01:10:32;14.10;99.90
22716;DHT22;11525;51.152;4.456;2023-03-23T01:12:59;14.10;99.90
22716;DHT22;11525;51.152;4.456;2023-03-23T01:15:27;14.00;99.90
22716;DHT22;11525;51.152;4.456;2023-03-23T01:17:53;14.10;99.90
22716;DHT22;11525;51.152;4.456;2023-03-23T01:20:19;14.20;99.90
22716;DHT22;11525;51.152;4.456;2023-03-23T01:22:45;14.10;99.90
22716;DHT22;11525;51.152;4.456;2023-03-23T01:25:12;14.20;99.90
22716;DHT22;11525;51.152;4.456;2023-03-23T01:27:39;14.20;99.90
22716;DHT22;11525;51.152;4.456;2023-03-23T01:30:08;14.10;99.90
22716;DHT22;11525;51.152;4.456;2023-03-23T01:32:34;14.10;99.90
22716;DHT22;11525;51.152;4.456;2023-03-23T01:35:00;14.10;99.90
22716;DHT22;11525;51.152;4.456;2023-03-23T01:37:26;14.10;99.90
22716;DHT22;11525;51.152;4.456;2023-03-23T01:39:56;14.20;99.90
22716;DHT22;11525;51.152;4.456;2023-03-23T01:42:31;14.10;99.90
22716;DHT22;11525;51.152;4.456;2023-03-23T01:50:22;14.20;99.90
22716;DHT22;11525;51.152;4.456;2023-03-23T01:52:50;14.30;99.90
22716;DHT22;11525;51.152;4.456;2023-03-23T01:55:18;14.20;99.90
22716;DHT22;11525;51.152;4.456;2023-03-23T01:57:45;14.30;99.90
22716;DHT22;11525;51.152;4.456;2023-03-23T02:00:11;14.20;99.90
22716;DHT22;11525;51.152;4.456;2023-03-23T02:02:41;14.20;99.90
22716;DHT22;11525;51.152;4.456;2023-03-23T02:05:12;14.30;99.90
22716;DHT22;11525;51.152;4.456;2023-03-23T02:07:38;14.40;99.90
22716;DHT22;11525;51.152;4.456;2023-03-23T02:10:04;14.40;99.90
22716;DHT22;11525;51.152;4.456;2023-03-23T02:12:30;14.40;99.90
22716;DHT22;11525;51.152;4.456;2023-03-23T02:14:56;14.30;99.90
22716;DHT22;11525;51.152;4.456;2023-03-23T02:17:50;14.30;99.90
22716;DHT22;11525;51.152;4.456;2023-03-23T02:26:37;14.30;99.90
22716;DHT22;11525;51.152;4.456;2023-03-23T02:35:04;14.00;99.90
22716;DHT22;11525;51.152;4.456;2023-03-23T02:37:42;14.00;99.90
22716;DHT22;11525;51.152;4.456;2023-03-23T02:40:16;13.90;99.90
22716;DHT22;11525;51.152;4.456;2023-03-23T02:42:47;14.00;99.90
22716;DHT22;11525;51.152;4.456;2023-03-23T02:45:16;14.00;99.90
22716;DHT22;11525;51.152;4.456;2023-03-23T02:47:43;13.90;99.90
22716;DHT22;11525;51.152;4.456;2023-03-23T02:50:12;14.10;99.90
22716;DHT22;11525;51.152;4.456;2023-03-23T02:52:40;13.90;99.90
22716;DHT22;11525;51.152;4.456;2023-03-23T02:55:07;13.90;99.90
22716;DHT22;11525;51.152;4.456;2023-03-23T02:57:34;13.80;99.90
22716;DHT22;11525;51.152;4.456;2023-03-23T03:00:04;13.70;99.90
22716;DHT22;11525;51.152;4.456;2023-03-23T03:02:36;13.80;99.90
22716;DHT22;11525;51.152;4.456;2023-03-23T03:11:09;14.00;99.90
22716;DHT22;11525;51.152;4.456;2023-03-23T03:14:41;14.10;99.90
22716;DHT22;11525;51.152;4.456;2023-03-23T03:17:13;13.90;99.90
22716;DHT22;11525;51.152;4.456;2023-03-23T03:19:45;13.90;99.90
22716;DHT22;11525;51.152;4.456;2023-03-23T03:22:13;13.90;99.90
22716;DHT22;11525;51.152;4.456;2023-03-23T03:24:40;14.00;99.90
22716;DHT22;11525;51.152;4.456;2023-03-23T03:27:16;13.90;99.90
22716;DHT22;11525;51.152;4.456;2023-03-23T03:29:45;13.90;99.90
22716;DHT22;11525;51.152;4.456;2023-03-23T03:32:17;13.90;99.90
22716;DHT22;11525;51.152;4.456;2023-03-23T03:34:44;13.90;99.90
22716;DHT22;11525;51.152;4.456;2023-03-23T03:37:10;13.90;99.90
22716;DHT22;11525;51.152;4.456;2023-03-23T03:39:38;13.90;99.90
22716;DHT22;11525;51.152;4.456;2023-03-23T03:42:04;13.90;99.90
22716;DHT22;11525;51.152;4.456;2023-03-23T03:44:32;14.10;99.90
22716;DHT22;11525;51.152;4.456;2023-03-23T03:46:58;14.10;99.90
22716;DHT22;11525;51.152;4.456;2023-03-23T03:49:23;14.00;99.90
22716;DHT22;11525;51.152;4.456;2023-03-23T03:51:50;14.00;99.90
22716;DHT22;11525;51.152;4.456;2023-03-23T03:54:15;14.10;99.90
22716;DHT22;11525;51.152;4.456;2023-03-23T03:56:41;13.90;99.90
22716;DHT22;11525;51.152;4.456;2023-03-23T03:59:09;14.00;99.90
22716;DHT22;11525;51.152;4.456;2023-03-23T04:01:36;14.10;99.90
22716;DHT22;11525;51.152;4.456;2023-03-23T04:04:03;14.00;99.90
22716;DHT22;11525;51.152;4.456;2023-03-23T04:06:30;14.00;99.90
22716;DHT22;11525;51.152;4.456;2023-03-23T04:08:58;14.00;99.90
22716;DHT22;11525;51.152;4.456;2023-03-23T04:11:26;13.80;99.90
22716;DHT22;11525;51.152;4.456;2023-03-23T04:13:52;13.80;99.90
22716;DHT22;11525;51.152;4.456;2023-03-23T04:16:18;13.90;99.90
22716;DHT22;11525;51.152;4.456;2023-03-23T04:18:44;13.90;99.90
22716;DHT22;11525;51.152;4.456;2023-03-23T04:21:10;13.80;99.90
22716;DHT22;11525;51.152;4.456;2023-03-23T04:23:36;13.70;99.90
22716;DHT22;11525;51.152;4.456;2023-03-23T04:26:04;13.50;99.90
22716;DHT22;11525;51.152;4.456;2023-03-23T04:28:30;13.50;99.90
22716;DHT22;11525;51.152;4.456;2023-03-23T04:31:00;13.60;99.90
22716;DHT22;11525;51.152;4.456;2023-03-23T04:33:27;13.50;99.90
22716;DHT22;11525;51.152;4.456;2023-03-23T04:35:55;13.40;99.90
22716;DHT22;11525;51.152;4.456;2023-03-23T04:38:22;13.20;99.90
22716;DHT22;11525;51.152;4.456;2023-03-23T04:40:50;13.10;99.90
22716;DHT22;11525;51.152;4.456;2023-03-23T04:43:20;13.20;99.90
22716;DHT22;11525;51.152;4.456;2023-03-23T04:45:55;13.20;99.90
22716;DHT22;11525;51.152;4.456;2023-03-23T04:48:26;13.40;99.90
22716;DHT22;11525;51.152;4.456;2023-03-23T04:50:53;13.50;99.90
22716;DHT22;11525;51.152;4.456;2023-03-23T04:53:19;13.60;99.90
22716;DHT22;11525;51.152;4.456;2023-03-23T04:55:46;13.70;99.90
22716;DHT22;11525;51.152;4.456;2023-03-23T04:58:13;13.60;99.90
22716;DHT22;11525;51.152;4.456;2023-03-23T05:00:40;13.50;99.90
22716;DHT22;11525;51.152;4.456;2023-03-23T05:03:06;13.40;99.90
22716;DHT22;11525;51.152;4.456;2023-03-23T05:05:34;13.40;99.90
22716;DHT22;11525;51.152;4.456;2023-03-23T05:08:00;13.50;99.90
22716;DHT22;11525;51.152;4.456;2023-03-23T05:10:26;13.40;99.90
22716;DHT22;11525;51.152;4.456;2023-03-23T05:12:53;13.30;99.90
22716;DHT22;11525;51.152;4.456;2023-03-23T05:15:19;13.30;99.90
22716;DHT22;11525;51.152;4.456;2023-03-23T05:17:45;13.30;99.90
22716;DHT22;11525;51.152;4.456;2023-03-23T05:20:13;13.20;99.90
22716;DHT22;11525;51.152;4.456;2023-03-23T05:22:40;13.30;99.90
22716;DHT22;11525;51.152;4.456;2023-03-23T05:25:07;13.30;99.90
22716;DHT22;11525;51.152;4.456;2023-03-23T05:27:37;13.50;99.90
22716;DHT22;11525;51.152;4.456;2023-03-23T05:30:05;13.60;99.90
22716;DHT22;11525;51.152;4.456;2023-03-23T05:32:32;13.60;99.90
22716;DHT22;11525;51.152;4.456;2023-03-23T05:35:01;13.50;99.90
22716;DHT22;11525;51.152;4.456;2023-03-23T05:37:28;13.50;99.90
22716;DHT22;11525;51.152;4.456;2023-03-23T05:39:58;13.50;99.90
22716;DHT22;11525;51.152;4.456;2023-03-23T05:42:31;13.60;99.90
22716;DHT22;11525;51.152;4.456;2023-03-23T05:44:58;13.60;99.90
22716;DHT22;11525;51.152;4.456;2023-03-23T05:47:24;13.50;99.90
22716;DHT22;11525;51.152;4.456;2023-03-23T05:49:51;13.50;99.90
22716;DHT22;11525;51.152;4.456;2023-03-23T05:52:17;13.40;99.90
22716;DHT22;11525;51.152;4.456;2023-03-23T05:54:43;13.30;99.90
22716;DHT22;11525;51.152;4.456;2023-03-23T05:57:10;13.30;99.90
22716;DHT22;11525;51.152;4.456;2023-03-23T05:59:36;13.20;99.90
22716;DHT22;11525;51.152;4.456;2023-03-23T06:02:03;13.00;99.90
22716;DHT22;11525;51.152;4.456;2023-03-23T06:04:29;12.90;99.90
22716;DHT22;11525;51.152;4.456;2023-03-23T06:06:55;13.00;99.90
22716;DHT22;11525;51.152;4.456;2023-03-23T06:09:21;13.00;99.90
22716;DHT22;11525;51.152;4.456;2023-03-23T06:11:48;13.10;99.90
22716;DHT22;11525;51.152;4.456;2023-03-23T06:14:14;13.00;99.90
22716;DHT22;11525;51.152;4.456;2023-03-23T06:16:40;13.00;99.90
22716;DHT22;11525;51.152;4.456;2023-03-23T06:19:06;12.90;99.90
22716;DHT22;11525;51.152;4.456;2023-03-23T06:21:32;12.90;99.90
22716;DHT22;11525;51.152;4.456;2023-03-23T06:23:58;12.90;99.90
22716;DHT22;11525;51.152;4.456;2023-03-23T06:26:30;13.10;99.90
22716;DHT22;11525;51.152;4.456;2023-03-23T06:28:57;13.30;99.90
22716;DHT22;11525;51.152;4.456;2023-03-23T06:31:24;13.20;99.90
22716;DHT22;11525;51.152;4.456;2023-03-23T06:33:50;13.30;99.90
22716;DHT22;11525;51.152;4.456;2023-03-23T06:36:16;13.30;99.90
22716;DHT22;11525;51.152;4.456;2023-03-23T06:38:43;13.20;99.90
22716;DHT22;11525;51.152;4.456;2023-03-23T06:41:08;13.20;99.90
22716;DHT22;11525;51.152;4.456;2023-03-23T06:43:34;12.90;99.90
22716;DHT22;11525;51.152;4.456;2023-03-23T06:46:03;12.60;99.90
22716;DHT22;11525;51.152;4.456;2023-03-23T06:48:29;12.40;99.90
22716;DHT22;11525;51.152;4.456;2023-03-23T06:50:55;12.30;99.90
22716;DHT22;11525;51.152;4.456;2023-03-23T06:53:21;12.20;99.90
22716;DHT22;11525;51.152;4.456;2023-03-23T06:55:47;12.20;99.90
22716;DHT22;11525;51.152;4.456;2023-03-23T06:58:13;12.30;99.90
22716;DHT22;11525;51.152;4.456;2023-03-23T07:00:39;12.30;99.90
22716;DHT22;11525;51.152;4.456;2023-03-23T07:03:06;12.20;99.90
22716;DHT22;11525;51.152;4.456;2023-03-23T07:05:35;12.10;99.90
22716;DHT22;11525;51.152;4.456;2023-03-23T07:08:03;11.90;99.90
22716;DHT22;11525;51.152;4.456;2023-03-23T07:10:29;11.60;99.90
22716;DHT22;11525;51.152;4.456;2023-03-23T07:12:55;11.70;99.90
22716;DHT22;11525;51.152;4.456;2023-03-23T07:15:20;12.00;99.90
22716;DHT22;11525;51.152;4.456;2023-03-23T07:17:47;12.30;99.90
22716;DHT22;11525;51.152;4.456;2023-03-23T07:20:13;12.20;99.90
22716;DHT22;11525;51.152;4.456;2023-03-23T07:22:40;12.10;99.90
22716;DHT22;11525;51.152;4.456;2023-03-23T07:25:06;11.70;99.90
22716;DHT22;11525;51.152;4.456;2023-03-23T07:27:31;11.80;99.90
22716;DHT22;11525;51.152;4.456;2023-03-23T07:29:57;11.90;99.90
22716;DHT22;11525;51.152;4.456;2023-03-23T07:32:23;11.90;99.90
22716;DHT22;11525;51.152;4.456;2023-03-23T07:34:50;12.20;99.90
22716;DHT22;11525;51.152;4.456;2023-03-23T07:37:15;12.40;99.90
22716;DHT22;11525;51.152;4.456;2023-03-23T07:39:42;12.30;99.90
22716;DHT22;11525;51.152;4.456;2023-03-23T07:42:08;12.20;99.90
22716;DHT22;11525;51.152;4.456;2023-03-23T07:44:35;11.90;99.90
22716;DHT22;11525;51.152;4.456;2023-03-23T07:47:01;11.80;99.90
22716;DHT22;11525;51.152;4.456;2023-03-23T07:49:27;11.90;99.90
22716;DHT22;11525;51.152;4.456;2023-03-23T07:51:53;12.10;99.90
22716;DHT22;11525;51.152;4.456;2023-03-23T07:54:19;12.30;99.90
22716;DHT22;11525;51.152;4.456;2023-03-23T07:56:44;12.30;99.90
22716;DHT22;11525;51.152;4.456;2023-03-23T07:59:11;12.20;99.90
22716;DHT22;11525;51.152;4.456;2023-03-23T08:01:38;12.10;99.90
22716;DHT22;11525;51.152;4.456;2023-03-23T08:04:04;11.90;99.90
22716;DHT22;11525;51.152;4.456;2023-03-23T08:06:32;12.00;99.90
22716;DHT22;11525;51.152;4.456;2023-03-23T08:08:59;12.10;99.90
22716;DHT22;11525;51.152;4.456;2023-03-23T08:11:25;12.30;99.90
22716;DHT22;11525;51.152;4.456;2023-03-23T08:13:51;12.60;99.90
22716;DHT22;11525;51.152;4.456;2023-03-23T08:16:17;12.90;99.90
22716;DHT22;11525;51.152;4.456;2023-03-23T08:18:44;13.10;99.90
22716;DHT22;11525;51.152;4.456;2023-03-23T08:21:10;13.10;99.90
22716;DHT22;11525;51.152;4.456;2023-03-23T08:23:37;13.10;99.90
22716;DHT22;11525;51.152;4.456;2023-03-23T08:26:06;13.20;99.90
22716;DHT22;11525;51.152;4.456;2023-03-23T08:28:36;13.20;99.90
22716;DHT22;11525;51.152;4.456;2023-03-23T08:31:11;13.30;99.90
22716;DHT22;11525;51.152;4.456;2023-03-23T08:33:38;13.20;99.90
22716;DHT22;11525;51.152;4.456;2023-03-23T08:36:05;13.10;99.90
22716;DHT22;11525;51.152;4.456;2023-03-23T08:38:30;13.10;99.90
22716;DHT22;11525;51.152;4.456;2023-03-23T08:41:04;13.20;99.90
22716;DHT22;11525;51.152;4.456;2023-03-23T08:43:31;13.60;99.90
22716;DHT22;11525;51.152;4.456;2023-03-23T08:45:58;14.00;99.90
22716;DHT22;11525;51.152;4.456;2023-03-23T08:48:24;14.40;99.90
22716;DHT22;11525;51.152;4.456;2023-03-23T08:50:50;15.20;99.90
22716;DHT22;11525;51.152;4.456;2023-03-23T08:53:18;16.10;99.90
22716;DHT22;11525;51.152;4.456;2023-03-23T08:55:46;17.40;99.90
22716;DHT22;11525;51.152;4.456;2023-03-23T08:58:12;18.80;99.90
22716;DHT22;11525;51.152;4.456;2023-03-23T09:00:38;19.80;99.90
22716;DHT22;11525;51.152;4.456;2023-03-23T09:03:04;20.50;99.90
22716;DHT22;11525;51.152;4.456;2023-03-23T09:05:30;20.70;99.90
22716;DHT22;11525;51.152;4.456;2023-03-23T09:07:57;20.60;99.90
22716;DHT22;11525;51.152;4.456;2023-03-23T09:10:27;21.10;99.90
22716;DHT22;11525;51.152;4.456;2023-03-23T09:12:55;22.20;99.90
22716;DHT22;11525;51.152;4.456;2023-03-23T09:15:22;23.70;99.90
22716;DHT22;11525;51.152;4.456;2023-03-23T09:17:50;25.50;95.70
22716;DHT22;11525;51.152;4.456;2023-03-23T09:20:19;24.90;92.40
22716;DHT22;11525;51.152;4.456;2023-03-23T09:22:48;23.60;94.40
22716;DHT22;11525;51.152;4.456;2023-03-23T09:25:17;23.00;97.70
22716;DHT22;11525;51.152;4.456;2023-03-23T09:27:50;23.20;96.80
22716;DHT22;11525;51.152;4.456;2023-03-23T09:30:23;23.40;95.50
22716;DHT22;11525;51.152;4.456;2023-03-23T09:32:49;23.70;95.30
22716;DHT22;11525;51.152;4.456;2023-03-23T09:35:15;24.10;94.10
22716;DHT22;11525;51.152;4.456;2023-03-23T09:37:43;24.20;92.60
22716;DHT22;11525;51.152;4.456;2023-03-23T09:40:30;25.00;90.90
22716;DHT22;11525;51.152;4.456;2023-03-23T09:48:51;25.70;82.50
22716;DHT22;11525;51.152;4.456;2023-03-23T09:51:47;26.10;84.20
22716;DHT22;11525;51.152;4.456;2023-03-23T09:56:49;26.00;80.60
22716;DHT22;11525;51.152;4.456;2023-03-23T09:59:18;26.10;81.60
22716;DHT22;11525;51.152;4.456;2023-03-23T10:01:48;25.80;77.80
22716;DHT22;11525;51.152;4.456;2023-03-23T10:04:39;25.60;82.40
22716;DHT22;11525;51.152;4.456;2023-03-23T10:07:13;24.30;87.00
22716;DHT22;11525;51.152;4.456;2023-03-23T10:09:40;23.00;92.40
22716;DHT22;11525;51.152;4.456;2023-03-23T10:12:13;22.40;94.80
22716;DHT22;11525;51.152;4.456;2023-03-23T10:15:09;21.60;97.20
22716;DHT22;11525;51.152;4.456;2023-03-23T10:25:29;19.90;99.90
22716;DHT22;11525;51.152;4.456;2023-03-23T10:28:09;19.10;99.90
22716;DHT22;11525;51.152;4.456;2023-03-23T10:30:42;18.90;99.90
22716;DHT22;11525;51.152;4.456;2023-03-23T10:33:18;18.60;99.90
22716;DHT22;11525;51.152;4.456;2023-03-23T10:35:56;18.30;99.90
22716;DHT22;11525;51.152;4.456;2023-03-23T10:38:49;18.20;99.90
22716;DHT22;11525;51.152;4.456;2023-03-23T10:41:17;18.30;99.90
22716;DHT22;11525;51.152;4.456;2023-03-23T10:43:44;18.40;99.90
22716;DHT22;11525;51.152;4.456;2023-03-23T10:48:54;18.50;99.90
22716;DHT22;11525;51.152;4.456;2023-03-23T10:51:27;18.10;99.90
22716;DHT22;11525;51.152;4.456;2023-03-23T10:53:58;17.90;99.90
22716;DHT22;11525;51.152;4.456;2023-03-23T10:58:53;17.80;99.90
22716;DHT22;11525;51.152;4.456;2023-03-23T11:01:29;17.90;99.90
22716;DHT22;11525;51.152;4.456;2023-03-23T11:03:56;18.20;99.90
22716;DHT22;11525;51.152;4.456;2023-03-23T11:06:27;18.50;99.90
22716;DHT22;11525;51.152;4.456;2023-03-23T11:09:00;18.40;99.90
22716;DHT22;11525;51.152;4.456;2023-03-23T11:11:38;18.40;99.90
22716;DHT22;11525;51.152;4.456;2023-03-23T11:14:29;18.70;99.90
22716;DHT22;11525;51.152;4.456;2023-03-23T11:16:58;18.60;99.90
22716;DHT22;11525;51.152;4.456;2023-03-23T11:19:35;18.20;99.90
22716;DHT22;11525;51.152;4.456;2023-03-23T11:24:44;17.80;99.90
22716;DHT22;11525;51.152;4.456;2023-03-23T11:27:11;17.80;99.90
22716;DHT22;11525;51.152;4.456;2023-03-23T11:30:19;17.70;99.90
22716;DHT22;11525;51.152;4.456;2023-03-23T11:32:46;17.60;99.90
22716;DHT22;11525;51.152;4.456;2023-03-23T11:35:25;17.60;99.90
22716;DHT22;11525;51.152;4.456;2023-03-23T11:37:54;17.50;99.90
22716;DHT22;11525;51.152;4.456;2023-03-23T11:40:24;17.60;99.90
22716;DHT22;11525;51.152;4.456;2023-03-23T11:42:58;17.90;99.90
22716;DHT22;11525;51.152;4.456;2023-03-23T11:45:47;18.30;99.90
22716;DHT22;11525;51.152;4.456;2023-03-23T11:48:38;18.10;99.90
22716;DHT22;11525;51.152;4.456;2023-03-23T11:51:20;18.00;99.90
22716;DHT22;11525;51.152;4.456;2023-03-23T11:54:02;17.90;99.90
22716;DHT22;11525;51.152;4.456;2023-03-23T11:56:34;17.90;99.90
22716;DHT22;11525;51.152;4.456;2023-03-23T11:59:00;18.10;99.90
22716;DHT22;11525;51.152;4.456;2023-03-23T12:07:06;18.60;99.90
22716;DHT22;11525;51.152;4.456;2023-03-23T12:17:46;18.30;99.90
22716;DHT22;11525;51.152;4.456;2023-03-23T12:23:04;18.10;99.90
22716;DHT22;11525;51.152;4.456;2023-03-23T12:26:06;18.20;99.90
22716;DHT22;11525;51.152;4.456;2023-03-23T12:28:45;18.40;99.90
22716;DHT22;11525;51.152;4.456;2023-03-23T12:39:48;18.80;99.90
22716;DHT22;11525;51.152;4.456;2023-03-23T12:45:02;18.70;99.90
22716;DHT22;11525;51.152;4.456;2023-03-23T12:47:45;18.70;99.90
22716;DHT22;11525;51.152;4.456;2023-03-23T12:50:42;18.80;99.90
22716;DHT22;11525;51.152;4.456;2023-03-23T12:53:30;19.00;99.90
22716;DHT22;11525;51.152;4.456;2023-03-23T12:58:38;18.80;99.90
22716;DHT22;11525;51.152;4.456;2023-03-23T13:01:10;18.90;99.90
22716;DHT22;11525;51.152;4.456;2023-03-23T13:03:50;19.10;99.90
22716;DHT22;11525;51.152;4.456;2023-03-23T13:06:32;19.20;99.90
22716;DHT22;11525;51.152;4.456;2023-03-23T13:09:14;19.20;99.90
22716;DHT22;11525;51.152;4.456;2023-03-23T13:11:42;18.90;99.90
22716;DHT22;11525;51.152;4.456;2023-03-23T13:22:59;18.40;99.90
22716;DHT22;11525;51.152;4.456;2023-03-23T13:28:21;18.40;99.90
22716;DHT22;11525;51.152;4.456;2023-03-23T13:31:12;18.40;99.90
22716;DHT22;11525;51.152;4.456;2023-03-23T13:33:44;18.00;99.90
22716;DHT22;11525;51.152;4.456;2023-03-23T13:36:12;17.70;99.90
22716;DHT22;11525;51.152;4.456;2023-03-23T13:38:44;17.40;99.90
22716;DHT22;11525;51.152;4.456;2023-03-23T13:41:13;17.10;99.90
22716;DHT22;11525;51.152;4.456;2023-03-23T13:43:43;17.00;99.90
22716;DHT22;11525;51.152;4.456;2023-03-23T13:48:49;17.10;99.90
22716;DHT22;11525;51.152;4.456;2023-03-23T13:51:31;17.30;99.90
22716;DHT22;11525;51.152;4.456;2023-03-23T13:54:39;17.60;99.90
22716;DHT22;11525;51.152;4.456;2023-03-23T14:00:25;18.00;99.90
22716;DHT22;11525;51.152;4.456;2023-03-23T14:02:58;17.80;99.90
22716;DHT22;11525;51.152;4.456;2023-03-23T14:05:31;17.80;99.90
22716;DHT22;11525;51.152;4.456;2023-03-23T14:11:44;17.80;99.90
22716;DHT22;11525;51.152;4.456;2023-03-23T14:16:40;17.30;99.90
22716;DHT22;11525;51.152;4.456;2023-03-23T14:19:25;17.00;99.90
22716;DHT22;11525;51.152;4.456;2023-03-23T14:21:59;16.30;99.90
22716;DHT22;11525;51.152;4.456;2023-03-23T14:24:27;15.40;99.90
22716;DHT22;11525;51.152;4.456;2023-03-23T14:27:22;14.80;99.90
22716;DHT22;11525;51.152;4.456;2023-03-23T14:30:02;14.30;99.90
22716;DHT22;11525;51.152;4.456;2023-03-23T14:32:30;14.10;99.90
22716;DHT22;11525;51.152;4.456;2023-03-23T14:34:59;14.10;99.90
22716;DHT22;11525;51.152;4.456;2023-03-23T14:37:26;14.10;99.90
22716;DHT22;11525;51.152;4.456;2023-03-23T14:39:53;14.30;99.90
22716;DHT22;11525;51.152;4.456;2023-03-23T14:42:28;14.40;99.90
22716;DHT22;11525;51.152;4.456;2023-03-23T14:44:54;14.50;99.90
22716;DHT22;11525;51.152;4.456;2023-03-23T14:47:30;14.70;99.90
22716;DHT22;11525;51.152;4.456;2023-03-23T14:49:58;14.80;99.90
22716;DHT22;11525;51.152;4.456;2023-03-23T14:52:27;14.80;99.90
22716;DHT22;11525;51.152;4.456;2023-03-23T14:54:53;14.90;99.90
22716;DHT22;11525;51.152;4.456;2023-03-23T14:57:26;14.80;99.90
22716;DHT22;11525;51.152;4.456;2023-03-23T14:59:52;15.00;99.90
22716;DHT22;11525;51.152;4.456;2023-03-23T15:04:54;15.20;99.90
22716;DHT22;11525;51.152;4.456;2023-03-23T15:07:25;15.20;99.90
22716;DHT22;11525;51.152;4.456;2023-03-23T15:09:52;15.30;99.90
22716;DHT22;11525;51.152;4.456;2023-03-23T15:12:27;15.40;99.90
22716;DHT22;11525;51.152;4.456;2023-03-23T15:14:56;15.10;99.90
22716;DHT22;11525;51.152;4.456;2023-03-23T15:17:31;14.80;99.90
22716;DHT22;11525;51.152;4.456;2023-03-23T15:20:49;14.80;99.90
22716;DHT22;11525;51.152;4.456;2023-03-23T15:23:04;14.80;99.90
22716;DHT22;11525;51.152;4.456;2023-03-23T15:25:33;15.10;99.90
22716;DHT22;11525;51.152;4.456;2023-03-23T15:28:32;15.70;99.90
22716;DHT22;11525;51.152;4.456;2023-03-23T15:31:02;16.00;99.90
22716;DHT22;11525;51.152;4.456;2023-03-23T15:33:36;16.20;99.90
22716;DHT22;11525;51.152;4.456;2023-03-23T15:36:08;16.30;99.90
22716;DHT22;11525;51.152;4.456;2023-03-23T15:38:35;16.60;99.90
22716;DHT22;11525;51.152;4.456;2023-03-23T15:41:04;16.80;99.90
22716;DHT22;11525;51.152;4.456;2023-03-23T15:43:33;16.60;99.90
22716;DHT22;11525;51.152;4.456;2023-03-23T15:46:19;16.60;99.90
22716;DHT22;11525;51.152;4.456;2023-03-23T15:51:13;16.20;99.90
22716;DHT22;11525;51.152;4.456;2023-03-23T15:53:39;16.20;99.90
22716;DHT22;11525;51.152;4.456;2023-03-23T15:56:08;16.40;99.90
22716;DHT22;11525;51.152;4.456;2023-03-23T15:58:35;16.60;99.90
22716;DHT22;11525;51.152;4.456;2023-03-23T16:01:21;16.70;99.90
22716;DHT22;11525;51.152;4.456;2023-03-23T16:06:17;16.60;99.90
22716;DHT22;11525;51.152;4.456;2023-03-23T16:08:43;16.60;99.90
22716;DHT22;11525;51.152;4.456;2023-03-23T16:11:13;16.60;99.90
22716;DHT22;11525;51.152;4.456;2023-03-23T16:13:39;16.40;99.90
22716;DHT22;11525;51.152;4.456;2023-03-23T16:16:09;16.40;99.90
22716;DHT22;11525;51.152;4.456;2023-03-23T16:18:36;16.50;99.90
22716;DHT22;11525;51.152;4.456;2023-03-23T16:21:02;16.30;99.90
22716;DHT22;11525;51.152;4.456;2023-03-23T16:23:28;16.20;99.90
22716;DHT22;11525;51.152;4.456;2023-03-23T16:25:54;15.90;99.90
22716;DHT22;11525;51.152;4.456;2023-03-23T16:28:20;15.60;99.90
22716;DHT22;11525;51.152;4.456;2023-03-23T16:30:46;15.30;99.90
22716;DHT22;11525;51.152;4.456;2023-03-23T16:33:12;15.10;99.90
22716;DHT22;11525;51.152;4.456;2023-03-23T16:35:38;15.00;99.90
22716;DHT22;11525;51.152;4.456;2023-03-23T16:38:04;15.00;99.90
22716;DHT22;11525;51.152;4.456;2023-03-23T16:40:31;15.10;99.90
22716;DHT22;11525;51.152;4.456;2023-03-23T16:42:57;15.10;99.90
22716;DHT22;11525;51.152;4.456;2023-03-23T16:45:23;15.10;99.90
22716;DHT22;11525;51.152;4.456;2023-03-23T16:47:51;15.10;99.90
22716;DHT22;11525;51.152;4.456;2023-03-23T16:50:19;15.00;99.90
22716;DHT22;11525;51.152;4.456;2023-03-23T16:52:46;15.00;99.90
22716;DHT22;11525;51.152;4.456;2023-03-23T16:55:15;15.20;99.90
22716;DHT22;11525;51.152;4.456;2023-03-23T16:57:42;15.40;99.90
22716;DHT22;11525;51.152;4.456;2023-03-23T17:00:10;15.50;99.90
22716;DHT22;11525;51.152;4.456;2023-03-23T17:02:41;15.50;99.90
22716;DHT22;11525;51.152;4.456;2023-03-23T17:05:08;15.70;99.90
22716;DHT22;11525;51.152;4.456;2023-03-23T17:07:36;15.60;99.90
22716;DHT22;11525;51.152;4.456;2023-03-23T17:10:02;15.60;99.90
22716;DHT22;11525;51.152;4.456;2023-03-23T17:12:28;15.70;99.90
22716;DHT22;11525;51.152;4.456;2023-03-23T17:14:53;15.60;99.90
22716;DHT22;11525;51.152;4.456;2023-03-23T17:17:19;15.40;99.90
22716;DHT22;11525;51.152;4.456;2023-03-23T17:19:45;15.60;99.90
22716;DHT22;11525;51.152;4.456;2023-03-23T17:22:11;15.60;99.90
22716;DHT22;11525;51.152;4.456;2023-03-23T17:24:37;15.70;99.90
22716;DHT22;11525;51.152;4.456;2023-03-23T17:27:02;15.60;99.90
22716;DHT22;11525;51.152;4.456;2023-03-23T17:29:28;15.60;99.90
22716;DHT22;11525;51.152;4.456;2023-03-23T17:31:54;15.60;99.90
22716;DHT22;11525;51.152;4.456;2023-03-23T17:34:20;15.70;99.90
22716;DHT22;11525;51.152;4.456;2023-03-23T17:36:45;15.60;99.90
22716;DHT22;11525;51.152;4.456;2023-03-23T17:39:11;15.70;99.90